createdAt,value
2019-02-10T00:01:52.152Z,8.27
2019-02-10T00:04:20.088Z,8.90
2019-02-10T00:06:52.221Z,9.23
2019-02-10T00:09:20.290Z,9.40
2019-02-10T00:11:48.571Z,7.10
2019-02-10T00:14:16.656Z,5.40
2019-02-10T00:16:44.696Z,8.40
2019-02-10T00:19:12.724Z,5.87
2019-02-10T00:21:40.721Z,6.80
2019-02-10T00:24:08.749Z,6.33
2019-02-10T00:26:37.842Z,7.60
2019-02-10T00:29:05.784Z,6.60
2019-02-10T00:31:33.965Z,4.17
2019-02-10T00:34:04.376Z,5.77
2019-02-10T00:36:33.546Z,8.07
2019-02-10T00:39:01.849Z,6.07
2019-02-10T00:41:29.907Z,5.63
2019-02-10T00:43:57.970Z,5.07
2019-02-10T00:46:25.890Z,6.30
2019-02-10T00:48:53.916Z,4.73
2019-02-10T00:51:24.857Z,6.57
2019-02-10T00:53:52.798Z,5.63
2019-02-10T00:56:20.769Z,4.33
2019-02-10T00:58:48.757Z,7.53
2019-02-10T01:01:16.972Z,4.57
2019-02-10T01:03:44.929Z,3.43
2019-02-10T01:06:12.924Z,7.00
2019-02-10T01:08:40.961Z,4.47
2019-02-10T01:11:12.063Z,6.10
2019-02-10T01:13:40.119Z,5.13
2019-02-10T01:16:08.201Z,3.13
2019-02-10T01:18:38.508Z,4.70
2019-02-10T01:21:06.584Z,7.00
2019-02-10T01:23:34.645Z,5.73
2019-02-10T01:26:02.682Z,5.33
2019-02-10T01:28:33.611Z,6.10
2019-02-10T01:31:01.714Z,3.43
2019-02-10T01:33:31.333Z,3.97
2019-02-10T01:36:05.196Z,6.43
2019-02-10T01:38:34.008Z,4.47
2019-02-10T01:41:02.228Z,7.23
2019-02-10T01:43:30.172Z,3.43
2019-02-10T01:45:58.239Z,2.73
2019-02-10T01:48:28.274Z,2.77
2019-02-10T01:50:56.347Z,3.87
2019-02-10T01:53:24.371Z,5.90
2019-02-10T01:55:55.185Z,6.40
2019-02-10T01:58:26.245Z,5.47
2019-02-10T02:00:54.349Z,2.63
2019-02-10T02:03:22.379Z,3.57
2019-02-10T02:05:50.363Z,5.57
2019-02-10T02:08:18.289Z,3.07
2019-02-10T02:10:46.472Z,5.30
2019-02-10T02:13:14.498Z,5.17
2019-02-10T02:15:42.544Z,2.60
2019-02-10T02:18:10.832Z,5.20
2019-02-10T02:20:38.923Z,5.10
2019-02-10T02:23:07.248Z,6.37
2019-02-10T02:25:37.174Z,3.10
2019-02-10T02:28:05.312Z,3.53
2019-02-10T02:30:33.410Z,3.87
2019-02-10T02:33:01.474Z,4.37
2019-02-10T02:35:29.423Z,4.10
2019-02-10T02:37:57.513Z,3.57
2019-02-10T02:40:25.551Z,5.03
2019-02-10T02:42:53.715Z,3.60
2019-02-10T02:45:21.716Z,4.47
2019-02-10T02:47:49.650Z,2.63
2019-02-10T02:50:18.139Z,3.97
2019-02-10T02:52:46.200Z,3.37
2019-02-10T02:55:14.328Z,4.93
2019-02-10T02:57:43.551Z,2.53
2019-02-10T03:00:11.541Z,3.27
2019-02-10T03:02:39.643Z,2.47
2019-02-10T03:05:10.882Z,5.43
2019-02-10T03:07:44.636Z,2.97
2019-02-10T03:10:12.897Z,5.13
2019-02-10T03:12:40.872Z,3.53
2019-02-10T03:15:09.012Z,3.93
2019-02-10T03:17:37.162Z,4.47
2019-02-10T03:20:05.262Z,2.60
2019-02-10T03:22:33.296Z,2.73
2019-02-10T03:25:01.332Z,3.87
2019-02-10T03:27:29.497Z,2.93
2019-02-10T03:29:57.644Z,2.27
2019-02-10T03:32:27.167Z,1.77
2019-02-10T03:34:55.179Z,3.00
2019-02-10T03:37:27.162Z,5.43
2019-02-10T03:39:53.080Z,4.03
2019-02-10T03:42:21.264Z,3.70
2019-02-10T03:44:49.300Z,2.63
2019-02-10T03:47:17.390Z,2.63
2019-02-10T03:49:45.468Z,1.83
2019-02-10T03:52:13.633Z,3.60
2019-02-10T03:54:41.661Z,1.63
2019-02-10T03:57:09.689Z,1.50
2019-02-10T03:59:37.719Z,6.03
2019-02-10T04:02:05.885Z,3.23
2019-02-10T04:04:33.879Z,3.17
2019-02-10T04:07:01.854Z,2.07
2019-02-10T04:09:29.930Z,5.50
2019-02-10T04:11:58.190Z,2.53
2019-02-10T04:14:26.248Z,3.13
2019-02-10T04:16:54.257Z,1.03
2019-02-10T04:19:22.292Z,3.03
2019-02-10T04:21:50.305Z,3.47
2019-02-10T04:24:18.295Z,2.07
2019-02-10T04:26:46.416Z,2.77
2019-02-10T04:29:14.416Z,3.13
2019-02-10T04:31:43.903Z,3.30
2019-02-10T04:34:12.004Z,2.23
2019-02-10T04:36:40.065Z,3.07
2019-02-10T04:39:13.586Z,1.60
2019-02-10T04:41:41.673Z,3.40
2019-02-10T04:44:09.732Z,3.27
2019-02-10T04:46:37.836Z,0.90
2019-02-10T04:49:05.867Z,1.10
2019-02-10T04:51:33.967Z,1.57
2019-02-10T04:54:02.008Z,1.03
2019-02-10T04:56:30.308Z,1.67
2019-02-10T04:58:59.754Z,1.47
2019-02-10T05:01:28.103Z,2.67
2019-02-10T05:03:56.273Z,3.40
2019-02-10T05:06:24.280Z,1.77
2019-02-10T05:08:58.384Z,1.10
2019-02-10T05:11:27.760Z,3.77
2019-02-10T05:13:56.337Z,2.13
2019-02-10T05:16:24.404Z,2.67
2019-02-10T05:18:52.326Z,2.37
2019-02-10T05:21:20.491Z,2.57
2019-02-10T05:23:48.497Z,2.97
2019-02-10T05:26:19.099Z,3.07
2019-02-10T05:28:47.265Z,2.87
2019-02-10T05:31:15.776Z,2.63
2019-02-10T05:33:43.772Z,2.70
2019-02-10T05:36:14.609Z,3.17
2019-02-10T05:38:42.640Z,2.87
2019-02-10T05:41:10.584Z,3.20
2019-02-10T05:43:40.961Z,1.30
2019-02-10T05:46:08.989Z,3.90
2019-02-10T05:48:37.036Z,5.13
2019-02-10T05:51:05.421Z,4.30
2019-02-10T05:53:36.146Z,5.80
2019-02-10T05:56:04.214Z,5.00
2019-02-10T05:58:32.480Z,6.70
2019-02-10T06:01:18.490Z,3.67
2019-02-10T06:03:46.661Z,3.63
2019-02-10T06:06:16.068Z,6.63
2019-02-10T06:08:44.085Z,5.57
2019-02-10T06:11:12.124Z,4.27
2019-02-10T06:13:40.191Z,5.37
2019-02-10T06:16:08.356Z,8.13
2019-02-10T06:18:36.444Z,5.77
2019-02-10T06:21:05.593Z,7.90
2019-02-10T06:23:34.924Z,6.97
2019-02-10T06:26:04.190Z,6.13
2019-02-10T06:28:32.709Z,5.13
2019-02-10T06:31:00.981Z,7.07
2019-02-10T06:33:29.046Z,4.93
2019-02-10T06:35:57.558Z,6.07
2019-02-10T06:38:26.841Z,10.63
2019-02-10T06:40:57.165Z,5.70
2019-02-10T06:43:27.494Z,8.63
2019-02-10T06:45:55.757Z,9.87
2019-02-10T06:48:30.122Z,7.80
2019-02-10T06:50:58.603Z,7.97
2019-02-10T06:53:27.358Z,7.87
2019-02-10T06:55:55.444Z,9.67
2019-02-10T06:58:27.422Z,8.07
2019-02-10T07:01:23.384Z,9.00
2019-02-10T07:04:02.207Z,11.23
2019-02-10T07:06:30.324Z,9.50
2019-02-10T07:08:58.403Z,12.70
2019-02-10T07:11:26.553Z,7.87
2019-02-10T07:13:55.952Z,9.57
2019-02-10T07:16:29.360Z,9.13
2019-02-10T07:19:32.418Z,12.33
2019-02-10T07:22:01.541Z,10.63
2019-02-10T07:24:41.387Z,9.43
2019-02-10T07:27:15.031Z,10.87
2019-02-10T07:30:03.561Z,10.90
2019-02-10T07:32:34.312Z,10.20
2019-02-10T07:35:17.489Z,8.40
2019-02-10T07:37:51.576Z,14.17
2019-02-10T07:40:45.710Z,12.23
2019-02-10T07:43:26.401Z,16.93
2019-02-10T07:46:12.329Z,11.50
2019-02-10T07:49:02.281Z,15.33
2019-02-10T07:51:39.009Z,11.23
2019-02-10T08:01:28.867Z,19.73
2019-02-10T08:04:23.750Z,14.97
2019-02-10T08:06:57.095Z,14.57
2019-02-10T08:09:47.307Z,16.03
2019-02-10T08:12:23.101Z,15.07
2019-02-10T08:14:54.663Z,14.70
2019-02-10T08:17:40.609Z,11.23
2019-02-10T08:20:40.561Z,12.87
2019-02-10T08:23:31.184Z,13.17
2019-02-10T08:26:28.651Z,14.73
2019-02-10T08:29:08.332Z,13.47
2019-02-10T08:32:01.223Z,18.03
2019-02-10T08:34:38.575Z,14.40
2019-02-10T08:37:42.066Z,18.90
2019-02-10T08:40:43.812Z,13.80
2019-02-10T08:43:20.579Z,17.80
2019-02-10T08:45:55.588Z,14.40
2019-02-10T08:48:33.077Z,13.83
2019-02-10T08:51:10.097Z,13.93
2019-02-10T08:53:43.999Z,17.77
2019-02-10T08:56:13.041Z,14.30
2019-02-10T08:58:41.273Z,11.77
2019-02-10T09:01:09.359Z,11.63
2019-02-10T09:03:39.280Z,10.33
2019-02-10T09:06:13.757Z,9.73
2019-02-10T09:08:41.932Z,15.93
2019-02-10T09:11:10.472Z,14.53
2019-02-10T09:13:39.984Z,11.43
2019-02-10T09:16:09.036Z,14.57
2019-02-10T09:18:39.007Z,13.17
2019-02-10T09:21:10.465Z,11.47
2019-02-10T09:23:39.147Z,13.03
2019-02-10T09:26:08.424Z,11.50
2019-02-10T09:28:36.620Z,13.50
2019-02-10T09:31:06.924Z,11.80
2019-02-10T09:33:34.967Z,12.97
2019-02-10T09:36:03.078Z,10.43
2019-02-10T09:38:35.363Z,10.30
2019-02-10T09:41:03.536Z,17.20
2019-02-10T09:43:31.597Z,11.40
2019-02-10T09:46:02.495Z,13.20
2019-02-10T09:48:30.660Z,11.80
2019-02-10T09:50:59.880Z,9.03
2019-02-10T09:53:27.959Z,12.70
2019-02-10T09:55:56.051Z,11.47
2019-02-10T09:58:27.081Z,12.10
2019-02-10T10:00:56.076Z,13.67
2019-02-10T10:03:26.544Z,11.23
2019-02-10T10:05:59.886Z,12.57
2019-02-10T10:08:28.016Z,8.93
2019-02-10T10:10:56.188Z,13.23
2019-02-10T10:13:24.334Z,8.47
2019-02-10T10:15:54.238Z,10.87
2019-02-10T10:18:22.315Z,12.73
2019-02-10T10:20:51.591Z,11.87
2019-02-10T10:23:19.711Z,13.23
2019-02-10T10:25:47.781Z,14.33
2019-02-10T10:28:18.598Z,11.10
2019-02-10T10:30:47.291Z,13.07
2019-02-10T10:33:17.936Z,7.90
2019-02-10T10:35:48.334Z,12.93
2019-02-10T10:38:16.432Z,8.03
2019-02-10T10:40:44.541Z,15.00
2019-02-10T10:43:12.721Z,9.17
2019-02-10T10:45:40.889Z,11.07
2019-02-10T10:48:09.009Z,8.50
2019-02-10T10:50:37.520Z,10.10
2019-02-10T10:53:06.836Z,10.20
2019-02-10T10:55:34.895Z,8.73
2019-02-10T10:58:02.944Z,9.53
2019-02-10T11:00:33.497Z,9.97
2019-02-10T11:03:04.652Z,9.27
2019-02-10T11:05:33.247Z,10.93
2019-02-10T11:08:01.629Z,9.20
2019-02-10T11:10:30.501Z,8.33
2019-02-10T11:13:01.593Z,13.73
2019-02-10T11:15:29.906Z,10.70
2019-02-10T11:17:58.183Z,10.67
2019-02-10T11:20:26.415Z,10.50
2019-02-10T11:22:54.568Z,10.80
2019-02-10T11:25:24.712Z,12.20
2019-02-10T11:27:53.593Z,11.13
2019-02-10T11:30:23.792Z,8.23
2019-02-10T11:32:52.977Z,9.77
2019-02-10T11:35:21.052Z,15.40
2019-02-10T11:37:49.331Z,9.70
2019-02-10T11:40:21.588Z,10.20
2019-02-10T11:42:51.077Z,9.00
2019-02-10T11:45:19.151Z,11.07
2019-02-10T11:47:48.484Z,11.37
2019-02-10T11:50:16.616Z,11.47
2019-02-10T11:52:44.704Z,10.43
2019-02-10T11:55:14.357Z,12.37
2019-02-10T11:57:43.273Z,11.43
2019-02-10T12:00:12.979Z,13.33
2019-02-10T12:02:41.541Z,7.53
2019-02-10T12:05:11.368Z,8.03
2019-02-10T12:07:40.467Z,11.90
2019-02-10T12:10:15.949Z,7.63
2019-02-10T12:12:44.086Z,10.33
2019-02-10T12:15:18.291Z,12.20
2019-02-10T12:17:46.410Z,7.17
2019-02-10T12:20:16.804Z,11.43
2019-02-10T12:22:50.357Z,8.00
2019-02-10T12:25:19.738Z,9.23
2019-02-10T12:27:47.835Z,11.57
2019-02-10T12:30:15.960Z,9.00
2019-02-10T12:32:45.152Z,13.30
2019-02-10T12:35:13.261Z,10.43
2019-02-10T12:37:43.553Z,10.40
2019-02-10T12:40:13.425Z,8.40
2019-02-10T12:42:41.516Z,7.20
2019-02-10T12:45:09.627Z,10.83
2019-02-10T12:47:37.656Z,5.13
2019-02-10T12:50:06.283Z,10.50
2019-02-10T12:52:36.575Z,7.47
2019-02-10T12:55:04.788Z,7.30
2019-02-10T12:57:32.831Z,8.00
2019-02-10T13:00:01.991Z,7.47
2019-02-10T13:02:32.781Z,11.87
2019-02-10T13:05:00.915Z,9.23
2019-02-10T13:07:30.325Z,5.93
2019-02-10T13:09:58.435Z,10.00
2019-02-10T13:12:26.467Z,12.37
2019-02-10T13:14:54.664Z,9.13
2019-02-10T13:17:23.502Z,8.20
2019-02-10T13:19:51.697Z,10.10
2019-02-10T13:22:20.543Z,8.70
2019-02-10T13:24:50.098Z,9.50
2019-02-10T13:27:19.495Z,7.80
2019-02-10T13:29:49.350Z,8.47
2019-02-10T13:32:18.729Z,5.80
2019-02-10T13:34:50.085Z,10.07
2019-02-10T13:37:27.618Z,7.47
2019-02-10T13:40:04.054Z,10.20
2019-02-10T13:42:35.493Z,8.37
2019-02-10T13:45:06.822Z,8.90
2019-02-10T13:47:40.042Z,10.47
2019-02-10T13:50:12.612Z,11.67
2019-02-10T13:52:43.607Z,6.57
2019-02-10T13:55:14.245Z,8.17
2019-02-10T13:57:47.739Z,9.40
2019-02-10T14:00:17.951Z,8.67
2019-02-10T14:02:47.226Z,10.23
2019-02-10T14:05:26.534Z,10.83
2019-02-10T14:07:58.717Z,8.73
2019-02-10T14:10:28.035Z,7.57
2019-02-10T14:13:02.983Z,8.63
2019-02-10T14:15:34.031Z,7.70
2019-02-10T14:18:02.148Z,11.67
2019-02-10T14:20:31.302Z,9.07
2019-02-10T14:23:00.978Z,5.20
2019-02-10T14:25:30.903Z,9.07
2019-02-10T14:28:01.504Z,10.67
2019-02-10T14:30:31.118Z,7.90
2019-02-10T14:32:59.727Z,8.83
2019-02-10T14:35:28.779Z,8.07
2019-02-10T14:37:58.769Z,12.37
2019-02-10T14:40:33.519Z,10.80
2019-02-10T14:42:58.171Z,16.07
2019-02-10T14:45:26.413Z,7.20
2019-02-10T14:47:54.723Z,7.50
2019-02-10T14:50:22.745Z,9.07
2019-02-10T14:52:50.764Z,10.10
2019-02-10T14:55:23.052Z,8.53
2019-02-10T14:57:52.023Z,6.40
2019-02-10T15:00:20.051Z,6.23
2019-02-10T15:02:48.397Z,6.87
2019-02-10T15:05:16.563Z,9.27
2019-02-10T15:07:44.640Z,10.60
2019-02-10T15:10:13.043Z,11.10
2019-02-10T15:12:41.274Z,11.20
2019-02-10T15:15:09.782Z,8.17
2019-02-10T15:17:37.874Z,6.40
2019-02-10T15:20:06.067Z,8.50
2019-02-10T15:22:34.048Z,12.53
2019-02-10T15:25:02.152Z,7.00
2019-02-10T15:27:30.149Z,6.63
2019-02-10T15:29:58.168Z,7.50
2019-02-10T15:32:27.370Z,7.93
2019-02-10T15:34:57.272Z,10.80
2019-02-10T15:37:28.234Z,9.00
2019-02-10T15:39:56.377Z,10.73
2019-02-10T15:42:24.495Z,6.77
2019-02-10T15:44:52.604Z,8.73
2019-02-10T15:47:20.753Z,7.33
2019-02-10T15:49:50.368Z,7.60
2019-02-10T15:52:19.438Z,7.77
2019-02-10T15:54:49.915Z,5.37
2019-02-10T15:57:21.165Z,8.63
2019-02-10T15:59:52.061Z,6.63
2019-02-10T16:02:21.445Z,9.40
2019-02-10T16:04:50.485Z,7.63
2019-02-10T16:07:20.061Z,9.50
2019-02-10T16:09:49.922Z,9.80
2019-02-10T16:12:20.674Z,7.00
2019-02-10T16:14:50.090Z,8.50
2019-02-10T16:17:19.540Z,9.37
2019-02-10T16:19:47.969Z,8.17
2019-02-10T16:22:18.538Z,4.93
2019-02-10T16:24:48.069Z,6.43
2019-02-10T16:27:18.625Z,8.20
2019-02-10T16:29:47.977Z,7.13
2019-02-10T16:32:16.061Z,5.67
2019-02-10T16:34:45.460Z,9.63
2019-02-10T16:37:13.962Z,8.00
2019-02-10T16:39:42.118Z,11.67
2019-02-10T16:42:10.197Z,9.53
2019-02-10T16:44:38.332Z,9.37
2019-02-10T16:47:06.437Z,8.40
2019-02-10T16:49:34.536Z,8.13
2019-02-10T16:52:02.574Z,10.00
2019-02-10T16:54:30.699Z,9.13
2019-02-10T16:56:58.828Z,9.03
2019-02-10T16:59:26.960Z,8.30
2019-02-10T17:01:55.100Z,8.27
2019-02-10T17:04:23.462Z,7.97
2019-02-10T17:06:52.921Z,5.07
2019-02-10T17:09:21.060Z,10.67
2019-02-10T17:11:51.408Z,5.60
2019-02-10T17:14:19.541Z,7.57
2019-02-10T17:16:47.973Z,6.77
2019-02-10T17:19:16.962Z,8.27
2019-02-10T17:21:45.121Z,9.50
2019-02-10T17:24:13.584Z,9.80
2019-02-10T17:26:41.761Z,15.13
2019-02-10T17:29:09.924Z,13.00
2019-02-10T17:31:38.015Z,12.67
2019-02-10T17:34:08.706Z,11.13
2019-02-10T17:36:36.498Z,7.90
2019-02-10T17:39:05.042Z,9.13
2019-02-10T17:41:35.134Z,13.47
2019-02-10T17:44:03.267Z,10.47
2019-02-10T17:46:31.607Z,7.37
2019-02-10T17:48:59.801Z,6.63
2019-02-10T17:51:27.948Z,7.67
2019-02-10T17:53:56.043Z,9.27
2019-02-10T17:56:24.197Z,10.17
2019-02-10T17:58:52.230Z,9.60
2019-02-10T18:01:20.262Z,10.10
2019-02-10T18:03:48.838Z,8.20
2019-02-10T18:06:17.073Z,7.47
2019-02-10T18:08:45.365Z,8.30
2019-02-10T18:11:14.596Z,11.00
2019-02-10T18:13:42.578Z,4.87
2019-02-10T18:16:28.467Z,7.93
2019-02-10T18:19:15.750Z,10.00
2019-02-10T18:21:54.804Z,6.50
2019-02-10T18:24:32.256Z,6.50
2019-02-10T18:27:20.803Z,8.30
2019-02-10T18:30:01.888Z,7.57
2019-02-10T18:32:45.036Z,11.80
2019-02-10T18:35:43.963Z,8.90
2019-02-10T18:38:29.545Z,8.80
2019-02-10T18:41:15.130Z,10.00
2019-02-10T18:44:01.035Z,10.33
2019-02-10T18:46:40.829Z,8.03
2019-02-10T18:49:18.040Z,7.03
2019-02-10T18:52:05.136Z,10.57
2019-02-10T18:54:44.135Z,16.03
2019-02-10T18:57:34.596Z,9.73
2019-02-10T19:00:27.863Z,7.17
2019-02-10T19:03:11.270Z,11.43
2019-02-10T19:05:56.820Z,10.53
2019-02-10T19:08:32.786Z,10.60
2019-02-10T19:11:08.638Z,7.87
2019-02-10T19:14:07.793Z,12.13
2019-02-10T19:16:57.808Z,9.40
2019-02-10T19:19:50.703Z,7.80
2019-02-10T19:22:34.538Z,8.67
2019-02-10T19:25:14.733Z,9.80
2019-02-10T19:28:10.659Z,11.57
2019-02-10T19:30:56.324Z,13.33
2019-02-10T19:33:43.363Z,11.37
2019-02-10T19:36:28.883Z,13.90
2019-02-10T19:39:21.705Z,12.30
2019-02-10T19:42:08.724Z,19.80
2019-02-10T19:44:58.620Z,15.90
2019-02-10T19:47:48.868Z,11.23
2019-02-10T19:50:37.156Z,12.13
2019-02-10T19:53:43.545Z,13.67
2019-02-10T19:56:33.063Z,13.87
2019-02-10T19:59:31.990Z,14.00
2019-02-10T20:02:20.240Z,15.30
2019-02-10T20:05:08.604Z,14.93
2019-02-10T20:07:58.719Z,17.20
2019-02-10T20:10:45.869Z,17.03
2019-02-10T20:13:25.171Z,13.87
2019-02-10T20:16:07.520Z,19.13
2019-02-10T20:18:43.801Z,16.53
2019-02-10T20:21:28.373Z,18.40
2019-02-10T20:24:10.170Z,12.03
2019-02-10T20:26:55.596Z,18.97
2019-02-10T20:29:34.261Z,20.17
2019-02-10T20:32:21.793Z,20.00
2019-02-10T20:35:03.166Z,13.97
2019-02-10T20:37:42.638Z,14.73
2019-02-10T20:40:22.634Z,18.03
2019-02-10T20:43:15.612Z,19.73
2019-02-10T20:46:14.704Z,11.80
2019-02-10T20:49:01.738Z,19.00
2019-02-10T20:51:48.748Z,17.57
2019-02-10T20:54:23.830Z,15.13
2019-02-10T20:57:19.838Z,20.13
2019-02-10T21:00:02.368Z,17.77
2019-02-10T21:02:46.412Z,17.27
2019-02-10T21:05:22.884Z,19.83
2019-02-10T21:08:22.071Z,15.73
2019-02-10T21:11:11.915Z,19.23
2019-02-10T21:13:48.481Z,19.60
2019-02-10T21:16:31.169Z,18.60
2019-02-10T21:19:21.295Z,17.40
2019-02-10T21:22:01.866Z,16.53
2019-02-10T21:25:03.769Z,15.10
2019-02-10T21:27:53.671Z,21.57
2019-02-10T21:30:39.611Z,20.10
2019-02-10T21:33:27.750Z,14.13
2019-02-10T21:36:20.396Z,21.27
2019-02-10T21:39:13.187Z,15.47
2019-02-10T21:41:51.145Z,16.47
2019-02-10T21:44:50.544Z,19.87
2019-02-10T21:47:33.236Z,14.77
2019-02-10T21:50:04.402Z,15.57
2019-02-10T21:52:32.581Z,20.53
2019-02-10T21:55:00.548Z,21.00
2019-02-10T21:57:29.804Z,23.27
2019-02-10T21:59:58.888Z,22.77
2019-02-10T22:02:26.889Z,17.57
2019-02-10T22:04:54.833Z,18.13
2019-02-10T22:07:22.912Z,16.93
2019-02-10T22:09:50.943Z,16.00
2019-02-10T22:12:21.780Z,20.87
2019-02-10T22:14:50.047Z,17.07
2019-02-10T22:17:18.031Z,17.27
2019-02-10T22:19:46.071Z,18.17
2019-02-10T22:22:14.243Z,17.33
2019-02-10T22:24:42.315Z,17.80
2019-02-10T22:27:10.300Z,22.37
2019-02-10T22:29:38.267Z,17.30
2019-02-10T22:32:06.251Z,17.63
2019-02-10T22:34:34.241Z,17.00
2019-02-10T22:37:03.506Z,18.87
2019-02-10T22:39:31.519Z,16.30
2019-02-10T22:42:02.572Z,16.50
2019-02-10T22:44:30.579Z,19.60
2019-02-10T22:46:59.185Z,20.43
2019-02-10T22:49:27.218Z,15.90
2019-02-10T22:51:55.157Z,23.90
2019-02-10T22:54:23.230Z,18.23
2019-02-10T22:56:56.980Z,14.93
2019-02-10T22:59:24.993Z,19.23
2019-02-10T23:01:54.112Z,17.30
2019-02-10T23:04:25.190Z,16.00
2019-02-10T23:06:53.239Z,12.23
2019-02-10T23:09:25.035Z,21.30
2019-02-10T23:11:53.103Z,14.70
2019-02-10T23:14:21.176Z,17.57
2019-02-10T23:16:49.219Z,18.13
2019-02-10T23:19:17.207Z,20.60
2019-02-10T23:21:45.220Z,15.87
2019-02-10T23:24:14.194Z,17.60
2019-02-10T23:26:42.192Z,12.57
2019-02-10T23:29:10.600Z,19.57
2019-02-10T23:31:38.556Z,15.20
2019-02-10T23:34:07.676Z,18.83
2019-02-10T23:36:35.660Z,18.97
2019-02-10T23:39:05.019Z,24.47
2019-02-10T23:41:32.976Z,18.23
2019-02-10T23:44:01.175Z,19.70
2019-02-10T23:46:32.285Z,21.47
2019-02-10T23:49:00.221Z,29.83
2019-02-10T23:51:28.311Z,20.90
2019-02-10T23:53:56.418Z,49.80
2019-02-10T23:56:26.577Z,51.83
2019-02-10T23:58:55.827Z,36.63
